Time;durP1;ratioP1;P1;durP2;ratioP2;P2;SDS_P1;SDS_P2;PMS_P1;PMS_P2;Temp;Humidity;BMP_temperature;BMP_pressure;BME280_temperature;BME280_humidity;BME280_pressure;Samples;Min_cycle;Max_cycle;Signal;HPM_P1;HPM_P2
2020/12/03 00:00:29;;;;;;;57.78;25.30;;;;;;;0.33;76.83;95961.09;5054930;28;20045;-75
2020/12/03 00:02:57;;;;;;;53.85;24.88;;;;;;;0.35;76.83;95952.22;5043994;28;20370;-75
2020/12/03 00:05:24;;;;;;;50.72;24.30;;;;;;;0.36;76.80;95953.84;5054751;28;20381;-75
2020/12/03 00:07:50;;;;;;;56.40;24.98;;;;;;;0.38;76.57;95953.69;5055009;28;20516;-75
2020/12/03 00:10:16;;;;;;;59.90;25.55;;;;;;;0.39;76.58;95953.50;5054475;28;20045;-75
2020/12/03 00:12:43;;;;;;;57.53;25.27;;;;;;;0.41;76.50;95948.19;5036491;28;20037;-75
2020/12/03 00:15:09;;;;;;;54.55;25.92;;;;;;;0.43;76.61;95940.28;5053978;28;20473;-75
2020/12/03 00:17:35;;;;;;;58.00;26.27;;;;;;;0.44;76.45;95950.41;5053171;28;20049;-75
2020/12/03 00:20:16;;;;;;;58.00;27.23;;;;;;;0.45;76.44;95948.66;5054331;28;20052;-75
2020/12/03 00:22:42;;;;;;;58.60;26.35;;;;;;;0.45;76.45;95940.91;5054182;28;20037;-75
2020/12/03 00:25:10;;;;;;;57.38;25.52;;;;;;;0.43;76.66;95938.50;5054353;28;20041;-75
2020/12/03 00:27:36;;;;;;;57.88;26.83;;;;;;;0.44;76.56;95940.09;5036395;28;20037;-75
2020/12/03 00:30:05;;;;;;;62.28;27.73;;;;;;;0.44;76.67;95945.25;5054516;28;20041;-75
2020/12/03 00:32:32;;;;;;;62.97;29.55;;;;;;;0.42;76.71;95936.09;5054184;28;20044;-75
2020/12/03 00:34:59;;;;;;;64.15;27.15;;;;;;;0.41;76.85;95940.44;5044120;28;20385;-75
2020/12/03 00:37:26;;;;;;;65.18;28.38;;;;;;;0.36;76.56;95940.16;5053898;28;20037;-75
2020/12/03 00:39:53;;;;;;;61.35;27.67;;;;;;;0.32;76.67;95942.25;5053835;28;20044;-75
2020/12/03 00:42:19;;;;;;;53.00;25.90;;;;;;;0.32;76.73;95934.50;5054579;28;20033;-75
2020/12/03 00:44:45;;;;;;;61.30;27.73;;;;;;;0.30;76.80;95939.03;5036115;28;20041;-75
2020/12/03 00:47:11;;;;;;;62.70;28.38;;;;;;;0.28;76.90;95925.50;5054121;28;20393;-75
2020/12/03 00:49:37;;;;;;;66.43;27.58;;;;;;;0.27;76.81;95931.59;5053730;28;20036;-75
2020/12/03 00:52:03;;;;;;;67.90;29.48;;;;;;;0.24;76.83;95921.63;5053450;28;20045;-75
2020/12/03 00:54:29;;;;;;;63.55;28.48;;;;;;;0.22;76.95;95922.78;5053901;28;20409;-75
2020/12/03 00:56:56;;;;;;;71.40;29.25;;;;;;;0.20;77.03;95917.78;5053827;28;20041;-75
2020/12/03 00:59:22;;;;;;;69.93;28.73;;;;;;;0.19;77.23;95917.00;5053752;28;20048;-75
2020/12/03 01:01:48;;;;;;;59.40;28.38;;;;;;;0.20;77.27;95913.41;5053484;28;20037;-75
2020/12/03 01:04:14;;;;;;;64.95;29.23;;;;;;;0.20;77.20;95916.00;5053688;28;20044;-75
2020/12/03 01:06:40;;;;;;;67.10;29.60;;;;;;;0.24;77.36;95915.69;5053524;28;20060;-75
2020/12/03 01:09:06;;;;;;;77.88;29.88;;;;;;;0.26;77.45;95918.91;5053245;28;20045;-75
2020/12/03 01:11:32;;;;;;;64.53;29.70;;;;;;;0.25;77.18;95918.06;5053696;28;20037;-75
2020/12/03 01:13:58;;;;;;;61.80;28.58;;;;;;;0.27;77.38;95910.19;5052735;28;20048;-75
2020/12/03 01:16:25;;;;;;;71.82;29.85;;;;;;;0.29;77.33;95921.13;5053523;28;20037;-75
2020/12/03 01:18:51;;;;;;;68.90;29.95;;;;;;;0.28;77.35;95904.06;5053361;28;20036;-75
2020/12/03 01:21:21;;;;;;;64.60;28.70;;;;;;;0.28;77.33;95906.66;5052461;28;20421;-75
2020/12/03 01:23:48;;;;;;;66.63;29.70;;;;;;;0.27;77.46;95895.50;5053316;28;20051;-75
2020/12/03 01:26:17;;;;;;;62.75;29.05;;;;;;;0.30;77.58;95899.56;5052571;28;20055;-75
2020/12/03 01:28:44;;;;;;;68.80;28.63;;;;;;;0.31;77.58;95894.19;5052942;28;20040;-75
2020/12/03 01:31:11;;;;;;;60.60;28.83;;;;;;;0.35;77.62;95889.53;5053088;28;20025;-75
2020/12/03 01:33:40;;;;;;;62.60;30.25;;;;;;;0.37;77.64;95883.22;5052249;28;20045;-75
2020/12/03 01:36:07;;;;;;;65.80;29.02;;;;;;;0.37;77.53;95875.47;5053055;28;20362;-75
2020/12/03 01:38:33;;;;;;;62.45;30.38;;;;;;;0.39;77.45;95875.31;5053415;28;20465;-75
2020/12/03 01:40:59;;;;;;;67.18;28.08;;;;;;;0.38;77.60;95882.25;5053112;28;20036;-75
2020/12/03 01:43:26;;;;;;;62.20;28.25;;;;;;;0.38;77.82;95881.47;5052422;28;20049;-75
2020/12/03 01:46:01;;;;;;;64.03;29.05;;;;;;;0.39;77.83;95880.47;5034537;28;20049;-75
2020/12/03 01:48:33;;;;;;;58.85;28.25;;;;;;;0.39;77.66;95872.75;5052861;28;20040;-75
2020/12/03 01:51:01;;;;;;;65.05;28.70;;;;;;;0.39;77.72;95863.22;5053010;28;20028;-75
2020/12/03 01:53:28;;;;;;;63.05;27.13;;;;;;;0.39;77.71;95865.81;5052912;28;20060;-75
2020/12/03 01:55:56;;;;;;;76.13;30.05;;;;;;;0.40;77.73;95859.69;5053372;28;20048;-75
2020/12/03 01:58:32;;;;;;;69.85;28.05;;;;;;;0.39;77.79;95863.22;5052857;28;20045;-75
2020/12/03 02:01:01;;;;;;;63.53;27.45;;;;;;;0.39;77.83;95857.25;5052967;28;20393;-75
2020/12/03 02:03:27;;;;;;;65.85;28.58;;;;;;;0.39;77.77;95857.25;5052703;28;20480;-75
2020/12/03 02:05:54;;;;;;;64.40;28.85;;;;;;;0.40;77.75;95853.72;5052881;28;20033;-75
2020/12/03 02:08:20;;;;;;;57.42;27.60;;;;;;;0.43;77.96;95847.44;5053111;28;20044;-75
2020/12/03 02:10:46;;;;;;;63.75;27.98;;;;;;;0.44;77.88;95854.97;5053063;28;20393;-75
2020/12/03 02:13:12;;;;;;;62.40;28.38;;;;;;;0.44;77.88;95842.06;5051779;28;20052;-75
2020/12/03 02:15:38;;;;;;;62.05;28.27;;;;;;;0.47;77.79;95838.38;5035490;28;20040;-75
2020/12/03 02:18:07;;;;;;;61.92;27.92;;;;;;;0.44;77.78;95841.28;5052627;28;20060;-75
2020/12/03 02:20:34;;;;;;;62.63;28.98;;;;;;;0.43;77.83;95840.47;5053457;28;20037;-75
2020/12/03 02:23:09;;;;;;;58.50;27.90;;;;;;;0.42;78.06;95838.06;5052983;28;20052;-75
2020/12/03 02:25:35;;;;;;;69.63;29.58;;;;;;;0.42;78.02;95836.31;5052856;28;20501;-75
2020/12/03 02:28:02;;;;;;;61.72;28.45;;;;;;;0.42;78.00;95840.66;5034780;28;20037;-75
2020/12/03 02:30:28;;;;;;;65.75;28.15;;;;;;;0.37;77.80;95836.78;5052462;28;20048;-75
2020/12/03 02:32:54;;;;;;;65.93;28.77;;;;;;;0.33;77.61;95827.00;5053362;28;20044;-75
2020/12/03 02:35:20;;;;;;;61.92;27.65;;;;;;;0.26;77.57;95836.38;5052577;28;20408;-75
2020/12/03 02:37:46;;;;;;;60.05;26.80;;;;;;;0.15;77.42;95827.25;5052766;28;20489;-75
2020/12/03 02:40:12;;;;;;;62.15;28.15;;;;;;;0.01;77.43;95827.94;5055151;28;20060;-75
2020/12/03 02:42:39;;;;;;;66.20;29.23;;;;;;;-0.06;77.60;95827.81;5056070;28;20040;-75
2020/12/03 02:45:06;;;;;;;66.70;28.85;;;;;;;-0.13;77.86;95826.84;5038792;28;20408;-75
2020/12/03 02:47:33;;;;;;;66.63;27.40;;;;;;;-0.11;78.09;95830.88;5056362;28;20040;-75
2020/12/03 02:49:59;;;;;;;63.60;28.27;;;;;;;-0.05;78.29;95824.25;5038963;28;20465;-75
2020/12/03 02:52:25;;;;;;;68.18;28.00;;;;;;;-0.01;78.24;95828.91;5056058;28;20049;-75
2020/12/03 02:54:52;;;;;;;65.78;28.67;;;;;;;0.00;78.11;95829.72;5056218;28;20036;-75
2020/12/03 02:57:20;;;;;;;64.57;27.85;;;;;;;0.02;78.30;95826.97;5055850;28;20037;-75
2020/12/03 02:59:47;;;;;;;65.63;27.55;;;;;;;0.05;78.10;95831.81;5055920;28;20045;-75
2020/12/03 03:02:14;;;;;;;64.68;28.15;;;;;;;0.08;78.07;95823.72;5056260;28;20045;-75
2020/12/03 03:04:41;;;;;;;64.60;27.73;;;;;;;0.13;78.22;95822.25;5055810;28;20033;-75
2020/12/03 03:07:07;;;;;;;63.53;29.55;;;;;;;0.17;78.06;95817.56;5021797;28;20044;-75
2020/12/03 03:09:33;;;;;;;54.17;27.80;;;;;;;0.18;78.06;95812.22;5055682;28;20397;-75
2020/12/03 03:12:00;;;;;;;65.88;28.60;;;;;;;0.22;78.08;95817.84;5056614;28;20469;-75
2020/12/03 03:14:27;;;;;;;64.25;29.10;;;;;;;0.20;78.11;95812.88;5055895;28;20048;-75
2020/12/03 03:16:53;;;;;;;62.20;28.15;;;;;;;0.23;78.19;95808.34;5028745;28;20045;-75
2020/12/03 03:19:19;;;;;;;65.03;29.55;;;;;;;0.25;78.07;95817.50;5037978;28;20396;-75
2020/12/03 03:21:46;;;;;;;67.03;28.20;;;;;;;0.26;77.97;95808.03;5054649;28;20049;-75
2020/12/03 03:24:12;;;;;;;65.07;28.52;;;;;;;0.23;77.95;95806.56;5037622;28;20049;-75
2020/12/03 03:26:38;;;;;;;57.45;25.63;;;;;;;0.16;77.82;95805.63;5055560;28;20508;-75
2020/12/03 03:29:05;;;;;;;61.75;27.58;;;;;;;0.14;77.97;95810.97;5055400;28;20045;-75
2020/12/03 03:31:32;;;;;;;62.13;27.08;;;;;;;0.08;77.92;95803.88;5055869;28;20488;-75
2020/12/03 03:33:58;;;;;;;63.72;27.92;;;;;;;0.01;78.03;95809.91;5055331;28;20059;-75
2020/12/03 03:36:25;;;;;;;60.10;25.40;;;;;;;-0.01;78.34;95803.13;5055220;28;20044;-75
2020/12/03 03:38:51;;;;;;;56.97;25.83;;;;;;;-0.03;78.21;95801.69;5055207;28;20477;-75
2020/12/03 03:41:17;;;;;;;49.83;23.80;;;;;;;-0.01;78.43;95804.91;5055541;28;20041;-75
2020/12/03 03:43:43;;;;;;;52.85;25.63;;;;;;;0.03;78.48;95800.22;5055234;28;20037;-75
2020/12/03 03:46:10;;;;;;;56.47;25.60;;;;;;;0.02;78.45;95803.75;5055665;28;20041;-75
2020/12/03 03:48:36;;;;;;;58.38;25.05;;;;;;;0.06;78.58;95799.88;5037449;28;20029;-75
2020/12/03 03:51:03;;;;;;;55.10;25.10;;;;;;;0.07;78.41;95798.94;5055184;28;20051;-75
2020/12/03 03:53:29;;;;;;;54.40;25.63;;;;;;;0.09;78.49;95795.19;5054591;28;20053;-75
2020/12/03 03:55:55;;;;;;;51.67;23.52;;;;;;;0.09;78.35;95805.50;5037546;28;20409;-75
2020/12/03 03:58:21;;;;;;;54.72;25.33;;;;;;;0.04;78.24;95787.16;5055002;28;20389;-75
2020/12/03 04:00:48;;;;;;;53.72;24.00;;;;;;;0.03;78.34;95795.88;5055018;28;20045;-76
2020/12/03 04:03:18;;;;;;;50.63;23.52;;;;;;;0.05;78.59;95785.41;5054859;28;20033;-75
2020/12/03 04:05:47;;;;;;;53.80;25.15;;;;;;;0.09;78.54;95794.41;5054824;28;20028;-75
2020/12/03 04:08:15;;;;;;;52.55;24.08;;;;;;;0.09;78.20;95791.81;5054606;28;20032;-75
2020/12/03 04:10:43;;;;;;;52.63;23.60;;;;;;;0.00;78.11;95793.66;5036898;28;20445;-75
2020/12/03 04:13:10;;;;;;;53.47;23.83;;;;;;;-0.05;78.19;95795.91;5054572;28;20076;-75
2020/12/03 04:15:36;;;;;;;51.83;25.17;;;;;;;-0.07;78.51;95790.13;5054376;28;20064;-75
2020/12/03 04:18:03;;;;;;;49.40;23.75;;;;;;;-0.07;78.25;95785.75;5054714;28;20037;-75
2020/12/03 04:20:30;;;;;;;51.13;24.27;;;;;;;-0.03;78.66;95781.88;5054312;28;20044;-75
2020/12/03 04:22:56;;;;;;;50.10;23.75;;;;;;;-0.02;78.62;95774.97;5054676;28;20465;-75
2020/12/03 04:25:22;;;;;;;50.55;23.73;;;;;;;-0.04;78.56;95775.13;5054444;28;20052;-75
2020/12/03 04:27:49;;;;;;;52.90;24.17;;;;;;;-0.01;78.77;95771.41;5054414;28;20136;-75
2020/12/03 04:30:15;;;;;;;48.35;22.58;;;;;;;-0.02;78.58;95769.81;5054642;28;20047;-75
2020/12/03 04:32:41;;;;;;;41.38;22.00;;;;;;;-0.03;78.60;95771.56;5054415;28;20054;-75
2020/12/03 04:35:09;;;;;;;52.78;24.38;;;;;;;0.00;78.88;95773.03;5054037;28;20037;-75
2020/12/03 04:37:36;;;;;;;48.55;22.95;;;;;;;-0.01;78.81;95772.19;5054008;28;20037;-75
2020/12/03 04:40:04;;;;;;;52.08;23.75;;;;;;;0.01;78.73;95769.47;5054011;28;20040;-75
2020/12/03 04:42:33;;;;;;;47.08;22.75;;;;;;;0.06;78.74;95774.09;5054089;28;20388;-75
2020/12/03 04:45:09;;;;;;;46.50;22.10;;;;;;;0.12;78.83;95771.66;5041070;28;20049;-75
2020/12/03 04:47:59;;;;;;;51.75;22.88;;;;;;;0.15;78.96;95762.78;5053872;28;20366;-75
2020/12/03 04:50:48;;;;;;;44.42;21.85;;;;;;;0.14;78.65;95766.31;5054246;28;20492;-75
2020/12/03 04:53:51;;;;;;;48.35;22.85;;;;;;;0.16;78.76;95761.81;4995159;28;20053;-75
2020/12/03 04:56:27;;;;;;;44.58;22.10;;;;;;;0.17;78.63;95761.66;5041532;28;20044;-75
2020/12/03 04:59:20;;;;;;;46.72;22.13;;;;;;;0.18;78.73;95752.94;5052865;28;20048;-75
2020/12/03 05:02:06;;;;;;;41.63;22.02;;;;;;;0.17;78.44;95751.34;5053509;28;20037;-75
2020/12/03 05:04:55;;;;;;;47.38;23.20;;;;;;;0.19;78.67;95758.91;5053595;28;20028;-75
2020/12/03 05:07:27;;;;;;;43.88;21.30;;;;;;;0.20;78.65;95760.50;5052919;28;20049;-75
2020/12/03 05:10:02;;;;;;;43.15;20.40;;;;;;;0.23;78.82;95746.47;5053624;28;20029;-75
2020/12/03 05:12:32;;;;;;;41.85;20.92;;;;;;;0.26;78.67;95743.56;5052481;28;20044;-75
2020/12/03 05:15:07;;;;;;;41.47;19.85;;;;;;;0.28;78.65;95739.03;5054022;28;20044;-75
2020/12/03 05:17:55;;;;;;;38.85;20.75;;;;;;;0.32;78.80;95743.66;5053583;28;20032;-75
2020/12/03 05:20:24;;;;;;;40.72;20.33;;;;;;;0.35;78.62;95745.91;5053664;28;20047;-75
2020/12/03 05:23:02;;;;;;;42.45;20.80;;;;;;;0.35;78.49;95739.94;5053424;28;20397;-75
2020/12/03 05:25:28;;;;;;;40.40;20.70;;;;;;;0.32;78.25;95740.28;5044620;28;20061;-74
2020/12/03 05:28:01;;;;;;;36.35;19.75;;;;;;;0.31;78.33;95736.09;5053576;28;20037;-74
2020/12/03 05:30:28;;;;;;;38.95;20.35;;;;;;;0.31;78.60;95733.50;5053728;28;20470;-75
2020/12/03 05:32:54;;;;;;;39.67;20.63;;;;;;;0.32;78.36;95727.41;5053458;28;20039;-75
2020/12/03 05:35:20;;;;;;;39.65;20.33;;;;;;;0.31;78.45;95721.41;5053014;28;20056;-75
2020/12/03 05:37:47;;;;;;;39.35;20.33;;;;;;;0.34;78.47;95720.28;5053810;28;20387;-75
2020/12/03 05:40:25;;;;;;;40.40;21.30;;;;;;;0.34;78.20;95715.13;5053205;28;20130;-75
2020/12/03 05:42:54;;;;;;;37.70;19.90;;;;;;;0.32;78.09;95711.94;5052555;28;20063;-75
2020/12/03 05:45:27;;;;;;;43.53;20.83;;;;;;;0.31;78.38;95710.31;5052922;28;20045;-75
2020/12/03 05:47:55;;;;;;;43.10;20.50;;;;;;;0.30;78.29;95701.78;5052451;28;20044;-75
2020/12/03 05:50:35;;;;;;;38.47;19.65;;;;;;;0.29;78.03;95691.63;5053610;28;20287;-75
2020/12/03 05:53:13;;;;;;;45.80;20.35;;;;;;;0.31;78.20;95694.84;5052412;28;20052;-75
2020/12/03 05:55:39;;;;;;;52.53;21.35;;;;;;;0.30;77.99;95698.41;5052931;28;20482;-75
2020/12/03 05:58:22;;;;;;;49.67;21.73;;;;;;;0.29;78.04;95686.47;5052918;28;20045;-75
2020/12/03 06:00:49;;;;;;;50.35;20.58;;;;;;;0.28;78.15;95687.47;5041124;28;20484;-75
2020/12/03 06:03:37;;;;;;;49.67;20.15;;;;;;;0.27;77.76;95684.06;5052765;28;20060;-75
2020/12/03 06:06:07;;;;;;;43.10;19.30;;;;;;;0.30;77.95;95693.25;5044683;28;20044;-75
2020/12/03 06:09:05;;;;;;;40.00;18.95;;;;;;;0.32;77.79;95689.50;5052847;28;20037;-75
2020/12/03 06:11:58;;;;;;;42.85;19.67;;;;;;;0.35;77.92;95696.09;5046169;28;20025;-75
2020/12/03 06:14:46;;;;;;;41.15;19.48;;;;;;;0.36;77.54;95683.03;5054224;28;20040;-75
2020/12/03 06:17:18;;;;;;;48.80;20.60;;;;;;;0.38;77.71;95686.25;5056632;28;20036;-75
2020/12/03 06:20:19;;;;;;;40.70;19.13;;;;;;;0.39;77.16;95681.88;5057257;28;20473;-75
2020/12/03 06:22:54;;;;;;;39.20;17.98;;;;;;;0.40;77.37;95676.56;5047799;28;20037;-75
2020/12/03 06:25:29;;;;;;;35.83;19.00;;;;;;;0.42;77.26;95675.56;5055982;28;20057;-75
2020/12/03 06:28:01;;;;;;;40.65;18.55;;;;;;;0.43;77.53;95680.56;5055851;28;20473;-75
2020/12/03 06:30:31;;;;;;;36.78;17.45;;;;;;;0.44;77.35;95683.94;5056694;28;20037;-75
2020/12/03 06:33:27;;;;;;;37.92;17.52;;;;;;;0.45;77.05;95680.41;5056792;28;20033;-75
2020/12/03 06:36:01;;;;;;;28.05;14.93;;;;;;;0.44;76.57;95674.41;5056319;28;20025;-75
2020/12/03 06:38:32;;;;;;;29.70;14.23;;;;;;;0.45;76.83;95680.41;5055518;28;20052;-75
2020/12/03 06:41:31;;;;;;;24.60;13.13;;;;;;;0.44;75.76;95676.19;5056618;28;20045;-75
2020/12/03 06:44:36;;;;;;;22.98;13.20;;;;;;;0.44;75.65;95676.19;5049724;28;20401;-75
2020/12/03 06:47:39;;;;;;;23.80;14.25;;;;;;;0.45;76.21;95672.66;5036410;28;20052;-75
2020/12/03 06:50:35;;;;;;;23.55;12.63;;;;;;;0.46;75.82;95666.50;5049877;28;20029;-75
2020/12/03 06:53:28;;;;;;;26.95;13.68;;;;;;;0.46;75.57;95667.31;5048748;28;20056;-75
2020/12/03 06:56:20;;;;;;;22.00;12.00;;;;;;;0.46;75.17;95662.16;5056051;28;20029;-75
2020/12/03 06:59:14;;;;;;;21.98;11.98;;;;;;;0.47;75.80;95663.75;5011452;28;20045;-75
2020/12/03 07:02:11;;;;;;;23.30;12.82;;;;;;;0.49;75.59;95661.81;5041585;28;20043;-75
2020/12/03 07:05:01;;;;;;;23.52;11.98;;;;;;;0.53;75.72;95662.28;5055959;28;20040;-74
2020/12/03 07:07:48;;;;;;;23.42;12.00;;;;;;;0.55;75.68;95655.16;5055934;28;20037;-75
2020/12/03 07:10:42;;;;;;;25.02;14.18;;;;;;;0.55;76.07;95650.81;5042120;28;20044;-75
2020/12/03 07:13:19;;;;;;;25.90;14.20;;;;;;;0.55;76.63;95658.53;5054923;28;20036;-75
2020/12/03 07:16:23;;;;;;;25.10;13.90;;;;;;;0.59;76.11;95657.22;5055757;28;20275;-75
2020/12/03 07:19:29;;;;;;;23.98;13.68;;;;;;;0.60;75.15;95653.66;5055317;28;20045;-75
2020/12/03 07:22:13;;;;;;;23.23;12.38;;;;;;;0.59;76.09;95654.63;5018590;28;20037;-75
2020/12/03 07:24:42;;;;;;;26.60;14.75;;;;;;;0.54;75.37;95662.09;5055701;28;20048;-75
2020/12/03 07:27:09;;;;;;;32.88;16.50;;;;;;;0.44;75.73;95656.34;5055007;28;20116;-75
2020/12/03 07:29:59;;;;;;;27.50;15.38;;;;;;;0.37;75.56;95658.84;5054839;28;20045;-75
2020/12/03 07:32:32;;;;;;;33.92;17.15;;;;;;;0.37;76.04;95658.03;5032123;28;20041;-75
2020/12/03 07:35:29;;;;;;;30.45;15.02;;;;;;;0.38;75.78;95657.09;5055332;28;20051;-75
2020/12/03 07:38:01;;;;;;;30.27;16.25;;;;;;;0.38;75.78;95649.34;5055163;28;20037;-75
2020/12/03 07:40:27;;;;;;;34.88;17.40;;;;;;;0.37;76.00;95645.16;5055174;28;20401;-75
2020/12/03 07:43:06;;;;;;;35.78;18.33;;;;;;;0.35;75.85;95649.69;5055309;28;20041;-75
2020/12/03 07:45:44;;;;;;;37.65;18.02;;;;;;;0.36;76.25;95646.94;5055665;28;20036;-75
2020/12/03 07:48:30;;;;;;;36.70;19.38;;;;;;;0.38;76.29;95644.97;5055245;28;20481;-75
2020/12/03 07:51:02;;;;;;;38.20;19.00;;;;;;;0.39;76.02;95636.25;5054983;28;20032;-75
2020/12/03 07:53:30;;;;;;;38.28;19.50;;;;;;;0.40;76.22;95635.28;5056411;28;20049;-75
2020/12/03 07:55:57;;;;;;;35.13;18.95;;;;;;;0.43;76.21;95628.97;5055114;28;20048;-76
2020/12/03 07:58:38;;;;;;;35.85;19.50;;;;;;;0.42;76.12;95623.97;5055027;28;20049;-75
2020/12/03 08:01:27;;;;;;;38.53;19.80;;;;;;;0.39;76.21;95619.97;5053977;28;21021;-75
2020/12/03 08:03:55;;;;;;;38.22;19.55;;;;;;;0.37;76.28;95622.72;5041616;28;20049;-75
2020/12/03 08:06:26;;;;;;;36.83;19.48;;;;;;;0.39;76.74;95625.94;5055570;28;20037;-75
2020/12/03 08:09:02;;;;;;;39.13;19.70;;;;;;;0.42;76.86;95624.81;5054822;28;20033;-75
2020/12/03 08:12:02;;;;;;;45.03;21.15;;;;;;;0.43;76.64;95612.72;5046637;28;20036;-75
2020/12/03 08:14:50;;;;;;;40.03;20.75;;;;;;;0.47;76.58;95603.66;5000634;28;20405;-75
2020/12/03 08:17:16;;;;;;;40.42;21.05;;;;;;;0.43;76.26;95612.72;5054681;28;20035;-75
2020/12/03 08:19:47;;;;;;;40.83;21.85;;;;;;;0.40;76.52;95600.97;5053870;28;20064;-75
2020/12/03 08:22:24;;;;;;;37.88;21.27;;;;;;;0.36;76.39;95594.56;5054312;28;20064;-75
2020/12/03 08:25:00;;;;;;;35.90;19.63;;;;;;;0.31;76.29;95587.31;5053583;28;20056;-75
2020/12/03 08:27:27;;;;;;;35.63;19.13;;;;;;;0.32;76.56;95599.25;5054839;28;20068;-75
2020/12/03 08:29:53;;;;;;;33.72;18.40;;;;;;;0.35;76.42;95588.56;5054688;28;20036;-75
2020/12/03 08:32:19;;;;;;;38.00;18.35;;;;;;;0.31;75.93;95583.94;5054340;28;20485;-75
2020/12/03 08:34:45;;;;;;;34.70;18.75;;;;;;;0.25;75.99;95595.75;5054554;28;20040;-75
2020/12/03 08:37:17;;;;;;;38.53;18.80;;;;;;;0.28;76.27;95597.22;5053429;28;20040;-75
2020/12/03 08:39:46;;;;;;;35.85;19.55;;;;;;;0.32;76.46;95598.47;5053425;28;20052;-75
2020/12/03 08:42:13;;;;;;;37.55;19.98;;;;;;;0.39;76.54;95594.19;5054155;28;20056;-75
2020/12/03 08:44:40;;;;;;;35.45;18.73;;;;;;;0.42;76.33;95586.13;5054044;28;20037;-75
2020/12/03 08:47:41;;;;;;;42.10;21.15;;;;;;;0.43;75.91;95584.34;5053961;28;20049;-75
2020/12/03 08:50:15;;;;;;;32.97;18.70;;;;;;;0.44;76.33;95573.81;5036620;28;20040;-75
2020/12/03 08:52:42;;;;;;;32.50;18.45;;;;;;;0.50;76.27;95567.16;5054082;28;20048;-75
2020/12/03 08:55:10;;;;;;;35.45;18.83;;;;;;;0.55;76.27;95567.47;5053885;28;20043;-75
2020/12/03 08:57:37;;;;;;;26.75;13.82;;;;;;;0.78;81.04;95562.22;5053819;28;20043;-73
2020/12/03 09:00:07;;;;;;;35.50;19.20;;;;;;;1.95;97.14;95554.38;5053603;28;20037;-74
2020/12/03 09:02:34;;;;;;;36.00;19.38;;;;;;;2.28;79.79;95542.69;5053010;28;20409;-75
2020/12/03 09:05:02;;;;;;;33.65;18.98;;;;;;;2.14;76.51;95531.41;5053574;28;20419;-75
2020/12/03 09:07:39;;;;;;;30.17;16.98;;;;;;;1.74;73.27;95524.16;5053611;28;20037;-75
2020/12/03 09:10:08;;;;;;;35.55;18.70;;;;;;;1.41;74.14;95537.53;5053731;28;20035;-75
2020/12/03 09:12:38;;;;;;;34.03;18.02;;;;;;;1.17;74.76;95528.31;5053510;28;20040;-74
2020/12/03 09:15:06;;;;;;;33.15;18.15;;;;;;;1.03;75.22;95529.19;5053784;28;20032;-74
2020/12/03 09:17:39;;;;;;;35.28;17.77;;;;;;;1.04;75.51;95523.03;5052733;28;20421;-74
2020/12/03 09:20:08;;;;;;;32.65;17.20;;;;;;;1.04;75.37;95525.59;5053605;28;20045;-74
2020/12/03 09:22:37;;;;;;;29.60;16.50;;;;;;;1.00;75.27;95522.56;5053370;28;20025;-74
2020/12/03 09:25:06;;;;;;;30.13;17.30;;;;;;;0.92;75.02;95517.50;5053529;28;20049;-75
2020/12/03 09:27:45;;;;;;;33.30;17.45;;;;;;;0.90;74.72;95509.13;5054165;28;20029;-74
2020/12/03 09:30:25;;;;;;;29.40;16.67;;;;;;;0.93;75.40;95502.84;5049629;28;20033;-75
2020/12/03 09:32:58;;;;;;;33.67;17.75;;;;;;;0.97;75.34;95499.72;5044308;28;20406;-74
2020/12/03 09:35:27;;;;;;;30.23;16.02;;;;;;;1.05;75.73;95503.97;5042484;28;20042;-74
2020/12/03 09:37:57;;;;;;;34.35;18.38;;;;;;;1.10;75.52;95503.44;5038283;28;20040;-75
2020/12/03 09:40:27;;;;;;;33.53;17.48;;;;;;;1.10;75.53;95501.63;5036714;28;20030;-74
2020/12/03 09:42:54;;;;;;;32.78;17.30;;;;;;;1.09;75.35;95502.63;5045748;28;20048;-74
2020/12/03 09:45:30;;;;;;;32.90;18.10;;;;;;;1.07;75.22;95496.84;5052835;28;20029;-75
2020/12/03 09:47:57;;;;;;;28.15;15.52;;;;;;;1.12;75.26;95489.34;5053013;28;20056;-74
2020/12/03 09:50:24;;;;;;;33.35;16.08;;;;;;;1.18;74.93;95487.81;5053376;28;20401;-74
2020/12/03 09:52:53;;;;;;;25.58;15.07;;;;;;;1.22;74.68;95478.75;5051608;28;20045;-74
2020/12/03 09:55:20;;;;;;;21.63;12.77;;;;;;;1.19;74.13;95477.28;5041480;28;20036;-74
2020/12/03 09:57:57;;;;;;;23.55;13.52;;;;;;;1.20;73.46;95478.13;5052928;28;20060;-74
2020/12/03 10:00:39;;;;;;;23.00;14.05;;;;;;;1.18;73.07;95473.13;5035114;28;20036;-74
2020/12/03 10:03:14;;;;;;;28.60;14.30;;;;;;;1.18;73.01;95469.75;5051812;28;20400;-74
2020/12/03 10:05:59;;;;;;;22.38;12.88;;;;;;;1.11;71.91;95467.06;5035157;28;20045;-75
2020/12/03 10:08:44;;;;;;;21.65;12.35;;;;;;;1.01;70.85;95454.47;5051643;28;20060;-74
2020/12/03 10:11:46;;;;;;;21.42;12.13;;;;;;;0.91;71.07;95450.59;5053030;28;20080;-74
2020/12/03 10:14:39;;;;;;;24.02;14.00;;;;;;;0.92;72.51;95439.28;5040487;28;20036;-74
2020/12/03 10:17:10;;;;;;;21.58;12.30;;;;;;;0.96;73.08;95443.09;5044401;28;20033;-74
2020/12/03 10:19:44;;;;;;;21.98;12.85;;;;;;;0.98;72.68;95439.34;5052882;28;20032;-74
2020/12/03 10:22:17;;;;;;;21.60;11.82;;;;;;;0.99;72.09;95428.06;5053098;28;20033;-74
2020/12/03 10:25:16;;;;;;;24.75;12.73;;;;;;;1.05;72.27;95423.13;5034923;28;20041;-74
2020/12/03 10:28:10;;;;;;;24.40;13.48;;;;;;;1.07;71.42;95416.00;5044857;28;20048;-74
2020/12/03 10:30:39;;;;;;;24.45;13.20;;;;;;;1.12;72.91;95418.84;5043529;28;20049;-74
2020/12/03 10:33:13;;;;;;;29.65;15.50;;;;;;;1.13;71.73;95417.84;5038628;28;20045;-74
2020/12/03 10:35:43;;;;;;;26.15;12.50;;;;;;;1.17;72.31;95414.72;5051670;28;20045;-74
2020/12/03 10:38:18;;;;;;;24.35;12.88;;;;;;;1.24;73.06;95398.47;5052574;28;20041;-74
2020/12/03 10:40:44;;;;;;;30.98;15.27;;;;;;;1.31;72.82;95402.72;5052971;28;20041;-75
2020/12/03 10:43:20;;;;;;;20.95;11.88;;;;;;;1.33;72.07;95393.00;5052503;28;20052;-75
2020/12/03 10:45:51;;;;;;;19.15;10.75;;;;;;;1.38;72.46;95397.59;5052661;28;20029;-74
2020/12/03 10:48:28;;;;;;;19.52;11.05;;;;;;;1.37;70.97;95393.44;5052552;28;20044;-75
2020/12/03 10:50:58;;;;;;;21.63;11.30;;;;;;;1.36;71.75;95395.22;5040787;28;20041;-75
2020/12/03 10:53:30;;;;;;;20.10;10.95;;;;;;;1.38;71.44;95395.81;5052854;28;20397;-75
2020/12/03 10:56:03;;;;;;;20.95;11.02;;;;;;;1.38;71.24;95393.22;5052535;28;20053;-75
2020/12/03 10:58:49;;;;;;;20.00;11.27;;;;;;;1.39;71.81;95392.28;5052604;28;20044;-75
2020/12/03 11:01:27;;;;;;;17.80;10.70;;;;;;;1.42;70.84;95391.88;5054805;28;20477;-75
2020/12/03 11:03:56;;;;;;;21.60;10.77;;;;;;;1.46;72.00;95378.59;5056303;28;20393;-75
2020/12/03 11:06:32;;;;;;;21.55;10.30;;;;;;;1.47;70.45;95375.03;5056234;28;20045;-75
2020/12/03 11:09:00;;;;;;;22.27;12.43;;;;;;;1.48;71.77;95367.09;5059628;28;20040;-74
2020/12/03 11:11:35;;;;;;;22.10;11.15;;;;;;;1.52;70.92;95365.72;5059281;28;20029;-75
2020/12/03 11:14:08;;;;;;;18.88;11.07;;;;;;;1.52;70.36;95365.72;5056161;28;20032;-75
2020/12/03 11:16:38;;;;;;;18.48;10.80;;;;;;;1.50;70.22;95354.78;5055719;28;20045;-75
2020/12/03 11:19:09;;;;;;;20.08;11.38;;;;;;;1.44;69.85;95347.00;5055791;28;20029;-75
2020/12/03 11:21:38;;;;;;;26.48;12.40;;;;;;;1.40;70.91;95333.66;5054957;28;20036;-75
2020/12/03 11:24:26;;;;;;;21.08;11.93;;;;;;;1.42;68.14;95336.84;5055776;28;20037;-75
2020/12/03 11:26:54;;;;;;;23.13;11.10;;;;;;;1.41;70.75;95336.06;5055827;28;20036;-75
2020/12/03 11:29:21;;;;;;;25.35;12.70;;;;;;;1.42;70.94;95324.72;5055603;28;20036;-75
2020/12/03 11:31:47;;;;;;;24.25;12.20;;;;;;;1.47;70.90;95316.44;5055372;28;20043;-75
2020/12/03 11:34:14;;;;;;;22.55;12.60;;;;;;;1.46;70.45;95301.09;5037653;28;20037;-75
2020/12/03 11:36:43;;;;;;;26.23;12.70;;;;;;;1.42;70.09;95298.88;5054293;28;20052;-75
2020/12/03 11:39:10;;;;;;;28.38;13.55;;;;;;;1.45;70.54;95297.72;5054697;28;20037;-75
2020/12/03 11:49:23;;;;;;;26.33;12.90;;;;;;;1.52;68.55;95284.84;5054299;28;20057;-75
2020/12/03 11:51:49;;;;;;;26.13;12.73;;;;;;;1.53;70.12;95289.81;5055117;28;20037;-75
2020/12/03 11:54:15;;;;;;;25.45;12.50;;;;;;;1.55;70.26;95277.50;5054992;28;20049;-75
2020/12/03 11:56:42;;;;;;;27.00;13.43;;;;;;;1.52;69.75;95264.19;5053801;28;20044;-75